Time;durP1;ratioP1;P1;durP2;ratioP2;P2;SDS_P1;SDS_P2;PMS_P1;PMS_P2;Temp;Humidity;BMP_temperature;BMP_pressure;BME280_temperature;BME280_humidity;BME280_pressure;Samples;Min_cycle;Max_cycle;Signal;HPM_P1;HPM_P2
2022/01/24 00:02:16;;;;;;;76.80;32.45;;;-7.00;99.90;;;;;;5074391;28;20033;-80
2022/01/24 00:04:41;;;;;;;76.32;32.17;;;-7.10;99.90;;;;;;5075592;28;20135;-80
2022/01/24 00:07:07;;;;;;;72.10;32.53;;;-7.10;99.90;;;;;;5054103;28;20041;-80
2022/01/24 00:09:33;;;;;;;73.37;30.10;;;-7.20;99.90;;;;;;5054990;28;20040;-80
2022/01/24 00:12:05;;;;;;;53.43;25.37;;;-7.30;99.90;;;;;;5057588;28;20112;-80
2022/01/24 00:17:31;;;;;;;65.13;25.97;;;-7.40;99.90;;;;;;5035722;28;20040;-80
2022/01/24 00:28:10;;;;;;;62.47;26.17;;;-7.50;99.90;;;;;;5075518;28;20059;-80
2022/01/24 00:30:36;;;;;;;59.50;26.80;;;-7.50;99.90;;;;;;5057285;28;20474;-80
2022/01/24 00:33:02;;;;;;;57.90;27.80;;;-7.50;99.90;;;;;;5074321;28;20051;-80
2022/01/24 00:35:28;;;;;;;64.27;27.87;;;-7.70;99.90;;;;;;5075085;28;20110;-80
2022/01/24 00:37:59;;;;;;;70.53;29.45;;;-7.70;99.90;;;;;;5057288;28;20060;-80
2022/01/24 00:40:26;;;;;;;110.93;42.70;;;-7.80;99.90;;;;;;5075312;28;20032;-80
2022/01/24 00:48:08;;;;;;;49.80;22.20;;;-7.90;99.90;;;;;;5075339;28;20496;-80
2022/01/24 00:53:49;;;;;;;47.77;22.40;;;-8.00;99.90;;;;;;5075209;28;20098;-80
2022/01/24 00:56:14;;;;;;;47.47;20.80;;;-8.10;99.90;;;;;;5074802;28;20047;-80
2022/01/24 00:58:40;;;;;;;49.97;20.07;;;-8.20;99.90;;;;;;5074797;28;20481;-79
2022/01/24 01:01:06;;;;;;;51.10;23.03;;;-8.20;99.90;;;;;;5056682;28;20029;-79
2022/01/24 01:03:32;;;;;;;46.80;20.93;;;-8.30;99.90;;;;;;5073649;28;20032;-79
2022/01/24 01:19:21;;;;;;;48.03;20.67;;;-8.50;99.90;;;;;;5074568;28;20078;-80
2022/01/24 01:21:46;;;;;;;40.13;18.90;;;-8.50;99.90;;;;;;5056274;28;20501;-80
2022/01/24 01:24:12;;;;;;;39.07;17.93;;;-8.60;99.90;;;;;;5056465;28;20028;-80
2022/01/24 01:26:44;;;;;;;47.17;18.40;;;-8.50;99.90;;;;;;5056242;28;20497;-80
2022/01/24 01:29:17;;;;;;;39.90;18.55;;;-8.60;99.90;;;;;;5034240;28;20033;-80
2022/01/24 01:32:04;;;;;;;40.35;19.15;;;-8.70;99.90;;;;;;5071329;28;20075;-80
2022/01/24 01:35:22;;;;;;;40.93;18.87;;;-8.80;99.90;;;;;;5055580;28;20032;-80
2022/01/24 01:55:54;;;;;;;75.20;30.50;;;-8.80;99.90;;;;;;5054703;28;20032;-79
2022/01/24 01:58:22;;;;;;;55.60;24.43;;;-8.80;99.90;;;;;;5073696;28;20066;-80
2022/01/24 02:00:51;;;;;;;59.83;28.87;;;-8.90;99.90;;;;;;5055526;28;20474;-79
2022/01/24 02:03:17;;;;;;;53.23;24.87;;;-9.00;99.90;;;;;;5054049;28;20040;-79
2022/01/24 02:05:43;;;;;;;54.07;22.00;;;-9.00;99.90;;;;;;5055490;28;20056;-79
2022/01/24 02:08:09;;;;;;;43.57;19.73;;;-9.00;99.90;;;;;;5055344;28;20044;-79
2022/01/24 02:10:37;;;;;;;40.97;19.73;;;-9.00;99.90;;;;;;5073392;28;20124;-79
2022/01/24 02:13:03;;;;;;;43.73;18.57;;;-9.10;99.90;;;;;;5055548;28;20036;-79
2022/01/24 02:15:42;;;;;;;44.47;20.33;;;-9.20;99.90;;;;;;5055283;28;20060;-79
2022/01/24 02:23:21;;;;;;;38.90;18.83;;;-9.40;99.90;;;;;;5073425;28;20036;-79
2022/01/24 02:25:46;;;;;;;39.80;18.00;;;-9.40;99.90;;;;;;5073015;28;20120;-79
2022/01/24 02:28:15;;;;;;;34.97;18.93;;;-9.40;99.90;;;;;;5073083;28;20056;-79
2022/01/24 02:33:29;;;;;;;39.53;18.23;;;-9.60;99.90;;;;;;5073347;28;20079;-79
2022/01/24 02:35:54;;;;;;;35.93;15.17;;;-9.70;99.90;;;;;;5054272;28;20029;-79
2022/01/24 02:49:35;;;;;;;31.63;14.10;;;-10.00;99.90;;;;;;5073081;28;20536;-80
2022/01/24 02:52:12;;;;;;;31.33;14.00;;;-10.00;99.90;;;;;;5032868;28;20033;-79
2022/01/24 02:54:39;;;;;;;33.17;16.87;;;-10.00;99.90;;;;;;5015222;28;20061;-79
2022/01/24 02:57:06;;;;;;;37.47;15.53;;;-10.10;99.90;;;;;;5032591;28;20026;-79
2022/01/24 02:59:33;;;;;;;38.63;16.83;;;-10.10;99.90;;;;;;5015040;28;20033;-79
2022/01/24 03:01:59;;;;;;;37.90;16.53;;;-10.10;99.90;;;;;;5032657;28;20038;-80
2022/01/24 03:04:24;;;;;;;37.80;15.23;;;-10.10;99.90;;;;;;5040871;28;20112;-80
2022/01/24 03:06:50;;;;;;;31.27;14.20;;;-10.10;99.90;;;;;;5054537;28;20039;-80
2022/01/24 03:09:16;;;;;;;39.13;15.30;;;-10.10;99.90;;;;;;5072400;28;20138;-79
2022/01/24 03:14:14;;;;;;;27.60;13.95;;;-10.30;99.90;;;;;;5069664;28;20039;-79
2022/01/24 03:16:39;;;;;;;28.80;14.60;;;-10.30;99.90;;;;;;5054519;28;20032;-79
2022/01/24 03:19:05;;;;;;;31.43;14.10;;;-10.30;99.90;;;;;;5072571;28;20055;-79
2022/01/24 03:21:30;;;;;;;30.67;13.87;;;-10.30;99.90;;;;;;5072301;28;20110;-79
2022/01/24 03:23:56;;;;;;;32.37;15.13;;;-10.40;99.90;;;;;;5054648;28;20040;-79
2022/01/24 03:26:22;;;;;;;33.03;14.27;;;-10.50;99.30;;;;;;5054433;28;20045;-79
2022/01/24 03:28:47;;;;;;;26.80;13.70;;;-10.50;99.30;;;;;;5072314;28;20028;-79
2022/01/24 03:31:13;;;;;;;32.50;14.73;;;-10.50;99.70;;;;;;5053650;28;20029;-82
2022/01/24 03:33:38;;;;;;;25.10;11.43;;;-10.50;99.90;;;;;;5072246;28;20064;-82
2022/01/24 03:36:04;;;;;;;31.90;13.43;;;-10.60;99.10;;;;;;5054380;28;20072;-82
2022/01/24 03:38:29;;;;;;;35.00;13.83;;;-10.60;98.40;;;;;;5054255;28;20067;-82
2022/01/24 03:40:55;;;;;;;30.90;15.03;;;-10.60;98.60;;;;;;5054258;28;20371;-82
2022/01/24 03:43:21;;;;;;;35.80;17.47;;;-10.70;99.30;;;;;;5072272;28;20055;-79
2022/01/24 03:46:08;;;;;;;30.47;13.33;;;-10.70;99.90;;;;;;5054232;28;20075;-83
2022/01/24 03:48:41;;;;;;;28.97;13.63;;;-10.70;99.90;;;;;;5072022;28;20029;-82
2022/01/24 03:51:06;;;;;;;31.83;14.77;;;-10.80;98.60;;;;;;5054166;28;20037;-80
2022/01/24 03:53:32;;;;;;;32.10;14.57;;;-10.70;99.20;;;;;;5054151;28;20024;-79
2022/01/24 03:55:58;;;;;;;30.87;12.67;;;-10.80;99.90;;;;;;5072172;28;20497;-80
2022/01/24 03:58:24;;;;;;;38.70;16.40;;;-10.80;99.90;;;;;;5072141;28;20072;-79
2022/01/24 04:00:52;;;;;;;39.00;18.77;;;-10.80;99.90;;;;;;5054137;28;20029;-82
2022/01/24 04:03:18;;;;;;;40.97;21.43;;;-10.90;99.90;;;;;;5054053;28;20032;-79
2022/01/24 04:05:44;;;;;;;38.83;19.20;;;-10.80;99.90;;;;;;5071989;28;20417;-79
2022/01/24 04:08:09;;;;;;;33.13;16.97;;;-10.80;99.90;;;;;;5071737;28;20035;-79
2022/01/24 04:10:41;;;;;;;38.47;15.27;;;-10.80;99.90;;;;;;5072013;28;20032;-79
2022/01/24 04:13:22;;;;;;;28.38;16.15;;;-10.90;99.90;;;;;;5072057;28;20031;-81
2022/01/24 04:18:44;;;;;;;38.77;15.47;;;-11.00;99.50;;;;;;5061229;28;20037;-79
2022/01/24 04:21:26;;;;;;;30.40;14.90;;;-11.00;99.90;;;;;;5071015;28;20029;-79
2022/01/24 04:24:15;;;;;;;23.45;11.88;;;-11.00;99.90;;;;;;5054031;28;20114;-80
2022/01/24 04:26:40;;;;;;;37.50;15.20;;;-11.00;98.80;;;;;;5074159;28;20041;-79
2022/01/24 04:29:07;;;;;;;28.57;13.43;;;-11.00;98.50;;;;;;5057645;28;20055;-79
2022/01/24 04:31:33;;;;;;;32.77;14.80;;;-11.10;99.60;;;;;;5057287;28;20048;-79
2022/01/24 04:33:59;;;;;;;39.47;16.60;;;-11.10;99.90;;;;;;5057294;28;20028;-79
2022/01/24 04:36:26;;;;;;;44.00;17.67;;;-11.20;99.90;;;;;;5057362;28;20040;-79
2022/01/24 04:38:52;;;;;;;41.60;18.47;;;-11.20;99.90;;;;;;5075204;28;20078;-79
2022/01/24 04:41:29;;;;;;;34.70;17.30;;;-11.10;99.90;;;;;;5057239;28;20039;-79
2022/01/24 04:44:11;;;;;;;31.63;15.43;;;-11.20;99.90;;;;;;5057274;28;20031;-79
2022/01/24 04:56:52;;;;;;;30.47;14.93;;;-11.20;99.10;;;;;;5075112;28;20531;-81
2022/01/24 04:59:18;;;;;;;28.40;14.70;;;-11.30;97.80;;;;;;5056850;28;20033;-81
2022/01/24 05:01:43;;;;;;;38.03;15.80;;;-11.30;97.20;;;;;;5074283;28;20037;-81
2022/01/24 05:04:09;;;;;;;27.20;14.23;;;-11.30;97.80;;;;;;5074067;28;20124;-81
2022/01/24 05:06:35;;;;;;;33.77;15.23;;;-11.30;98.90;;;;;;5073006;28;20409;-79
2022/01/24 05:09:00;;;;;;;33.53;15.30;;;-11.30;99.80;;;;;;5056562;28;20524;-82
2022/01/24 05:25:08;;;;;;;34.60;15.83;;;-11.00;99.90;;;;;;5074602;28;20110;-81
2022/01/24 05:27:34;;;;;;;28.60;14.70;;;-10.90;99.90;;;;;;5056217;28;20790;-81
2022/01/24 05:29:59;;;;;;;30.83;13.83;;;-10.90;99.90;;;;;;5055435;28;20119;-81
2022/01/24 05:32:25;;;;;;;36.23;14.30;;;-10.80;99.90;;;;;;5074010;28;20043;-81
2022/01/24 05:34:51;;;;;;;34.87;15.60;;;-10.80;99.90;;;;;;5073181;28;20037;-81
2022/01/24 05:37:17;;;;;;;42.70;17.10;;;-10.80;99.90;;;;;;5072914;28;20090;-81
2022/01/24 05:39:42;;;;;;;33.57;15.63;;;-10.80;99.90;;;;;;5073998;28;20036;-81
2022/01/24 05:42:08;;;;;;;36.43;18.93;;;-10.70;99.90;;;;;;5055455;28;20123;-80
2022/01/24 05:44:34;;;;;;;39.40;17.27;;;-10.60;99.90;;;;;;5055571;28;20082;-81
2022/01/24 05:46:59;;;;;;;42.47;18.57;;;-10.60;99.90;;;;;;5054968;28;20414;-80
2022/01/24 05:49:25;;;;;;;43.73;20.30;;;-10.50;99.90;;;;;;5055609;28;20751;-81
2022/01/24 05:51:50;;;;;;;55.43;20.53;;;-10.50;99.90;;;;;;5073594;28;20037;-82
2022/01/24 05:54:16;;;;;;;64.30;25.80;;;-10.40;99.90;;;;;;5073625;28;20086;-81
2022/01/24 05:56:41;;;;;;;238.77;87.43;;;-10.30;99.90;;;;;;5072718;28;20028;-81
2022/01/24 05:59:07;;;;;;;227.77;88.13;;;-10.30;99.90;;;;;;5055422;28;20488;-81
2022/01/24 06:01:32;;;;;;;74.20;30.77;;;-10.20;99.90;;;;;;5072993;28;20055;-81
2022/01/24 06:03:58;;;;;;;55.87;23.37;;;-10.20;99.90;;;;;;5073349;28;20068;-82
2022/01/24 06:06:23;;;;;;;57.90;24.60;;;-10.20;99.90;;;;;;5055453;28;20064;-82
2022/01/24 06:08:49;;;;;;;50.10;21.47;;;-10.20;99.90;;;;;;5072736;28;20375;-82
2022/01/24 06:11:14;;;;;;;51.57;22.23;;;-10.10;99.90;;;;;;5053066;28;20083;-82
2022/01/24 06:13:41;;;;;;;56.37;22.93;;;-10.10;99.90;;;;;;5071254;28;20044;-82
2022/01/24 06:16:07;;;;;;;61.77;23.77;;;-10.10;99.90;;;;;;5071565;28;20539;-81
2022/01/24 06:18:33;;;;;;;52.10;23.03;;;-10.10;99.90;;;;;;5054637;28;20036;-81
2022/01/24 06:20:58;;;;;;;47.40;23.77;;;-10.10;99.90;;;;;;5071863;28;20517;-81
2022/01/24 06:23:25;;;;;;;45.53;21.10;;;-10.00;99.90;;;;;;5052268;28;20111;-81
2022/01/24 06:25:50;;;;;;;49.23;20.87;;;-10.00;99.90;;;;;;5070401;28;20440;-81
2022/01/24 06:28:16;;;;;;;55.30;24.70;;;-10.00;99.90;;;;;;5052351;28;20033;-80
2022/01/24 06:30:42;;;;;;;53.27;21.73;;;-10.00;99.90;;;;;;5052913;28;20032;-80
2022/01/24 06:33:08;;;;;;;52.87;22.87;;;-10.00;99.90;;;;;;5052475;28;20050;-80
2022/01/24 06:35:34;;;;;;;57.67;24.07;;;-10.00;99.90;;;;;;5070654;28;20045;-80
2022/01/24 06:38:00;;;;;;;46.90;21.93;;;-10.10;99.90;;;;;;5054041;28;20033;-80
2022/01/24 06:40:26;;;;;;;56.37;19.60;;;-10.10;99.90;;;;;;5054224;28;20111;-80
2022/01/24 06:42:51;;;;;;;48.17;20.80;;;-10.10;99.90;;;;;;5053116;28;20401;-81
2022/01/24 06:45:17;;;;;;;50.67;20.63;;;-10.10;99.90;;;;;;5053977;28;20059;-81
2022/01/24 06:47:44;;;;;;;50.73;20.67;;;-10.20;99.90;;;;;;5072261;28;20071;-80
2022/01/24 06:50:10;;;;;;;51.70;21.67;;;-10.20;99.90;;;;;;5053731;28;20478;-80
2022/01/24 06:52:36;;;;;;;48.67;19.80;;;-10.20;99.90;;;;;;5053242;28;20063;-80
2022/01/24 06:55:02;;;;;;;47.33;21.70;;;-10.20;99.90;;;;;;5046002;28;20038;-80
2022/01/24 06:57:28;;;;;;;43.77;20.57;;;-10.20;99.90;;;;;;5064011;28;20032;-80
2022/01/24 06:59:54;;;;;;;45.70;22.03;;;-10.20;99.90;;;;;;5067952;28;20039;-80
2022/01/24 07:02:19;;;;;;;39.77;20.03;;;-10.20;99.90;;;;;;5047531;28;20370;-80
2022/01/24 07:04:45;;;;;;;47.03;19.70;;;-10.30;99.90;;;;;;5049426;28;20032;-80
2022/01/24 07:09:52;;;;;;;52.17;23.50;;;-10.30;99.90;;;;;;5062187;27;20466;-79
2022/01/24 07:12:18;;;;;;;50.40;22.20;;;-10.30;99.90;;;;;;5063442;28;20457;-80
2022/01/24 07:14:44;;;;;;;50.40;21.27;;;-10.20;99.90;;;;;;5055627;28;20029;-80
2022/01/24 07:19:41;;;;;;;51.50;23.87;;;-10.10;99.90;;;;;;5062014;28;20036;-80
2022/01/24 07:22:07;;;;;;;53.73;24.50;;;-10.00;99.90;;;;;;5058348;28;20402;-79
2022/01/24 07:24:34;;;;;;;68.43;26.10;;;-9.90;99.90;;;;;;5057740;28;20474;-79
2022/01/24 07:26:59;;;;;;;58.90;25.37;;;-9.80;99.90;;;;;;5061590;28;20449;-79
2022/01/24 07:29:25;;;;;;;69.70;28.10;;;-9.70;99.90;;;;;;5062159;28;20128;-80
2022/01/24 07:31:50;;;;;;;53.03;23.50;;;-9.70;99.90;;;;;;5062192;28;20498;-79
2022/01/24 07:34:17;;;;;;;58.37;24.10;;;-9.60;99.90;;;;;;5062295;28;20068;-79
2022/01/24 07:36:42;;;;;;;58.67;24.67;;;-9.50;99.90;;;;;;5062672;28;20036;-79
2022/01/24 07:39:08;;;;;;;52.17;25.47;;;-9.40;99.90;;;;;;5062177;28;20029;-79
2022/01/24 07:41:42;;;;;;;53.30;23.53;;;-9.20;99.90;;;;;;5062277;28;20020;-79
2022/01/24 07:44:08;;;;;;;62.73;23.67;;;-9.10;99.90;;;;;;5061977;28;20537;-79
2022/01/24 07:46:34;;;;;;;62.43;25.87;;;-9.00;99.90;;;;;;5054308;28;20107;-79
2022/01/24 07:49:02;;;;;;;79.23;31.33;;;-8.80;99.90;;;;;;5056980;28;20128;-79
2022/01/24 07:51:27;;;;;;;71.60;33.07;;;-8.80;99.90;;;;;;5059906;28;20020;-79
2022/01/24 07:53:53;;;;;;;70.10;31.50;;;-8.60;99.90;;;;;;5063211;28;20027;-79
2022/01/24 07:56:19;;;;;;;73.77;32.43;;;-8.40;99.90;;;;;;5059926;28;20022;-79
2022/01/24 07:58:45;;;;;;;82.10;35.97;;;-8.30;99.90;;;;;;5061031;28;20031;-80
2022/01/24 08:01:11;;;;;;;80.87;35.93;;;-8.10;99.90;;;;;;5057845;28;20158;-78
2022/01/24 08:03:37;;;;;;;80.03;33.70;;;-7.90;99.90;;;;;;5063031;28;20111;-78
2022/01/24 08:06:03;;;;;;;81.80;34.20;;;-7.80;99.90;;;;;;5064509;28;20108;-78
2022/01/24 08:08:29;;;;;;;85.27;38.03;;;-7.60;99.90;;;;;;5065277;28;20041;-78
2022/01/24 08:10:54;;;;;;;82.20;34.53;;;-7.50;99.90;;;;;;5065737;28;20021;-78
2022/01/24 08:13:20;;;;;;;87.57;39.70;;;-7.40;99.90;;;;;;5061953;28;20122;-78
2022/01/24 08:15:46;;;;;;;81.17;36.13;;;-7.20;99.90;;;;;;5059766;28;20107;-78
2022/01/24 08:18:12;;;;;;;74.25;33.08;;;-7.00;99.90;;;;;;5060280;28;20027;-78
2022/01/24 08:20:37;;;;;;;72.60;33.67;;;-6.80;99.90;;;;;;5045718;28;20071;-78
2022/01/24 08:23:03;;;;;;;68.43;28.70;;;-6.60;99.90;;;;;;5043394;28;20025;-78
2022/01/24 08:25:29;;;;;;;48.25;23.38;;;-6.50;99.90;;;;;;5041758;28;20080;-78
2022/01/24 08:27:54;;;;;;;43.33;20.70;;;-6.30;99.90;;;;;;5046278;28;20044;-78
2022/01/24 08:30:22;;;;;;;48.17;24.10;;;-6.20;99.90;;;;;;5046021;28;20025;-79
2022/01/24 08:32:48;;;;;;;57.28;24.02;;;-6.00;99.90;;;;;;5041832;28;20135;-78
2022/01/24 08:35:16;;;;;;;48.33;23.83;;;-5.90;99.90;;;;;;5046239;28;20171;-78
2022/01/24 08:37:42;;;;;;;59.28;26.02;;;-5.70;99.90;;;;;;5041478;28;20030;-78
2022/01/24 08:40:11;;;;;;;72.43;32.97;;;-5.50;99.90;;;;;;5041142;28;20036;-78
2022/01/24 08:42:53;;;;;;;80.03;36.33;;;-5.40;99.90;;;;;;5049069;28;20036;-78
2022/01/24 08:48:03;;;;;;;57.67;29.98;;;-5.00;97.90;;;;;;5049174;28;20559;-78
2022/01/24 08:50:28;;;;;;;65.95;29.08;;;-4.90;96.10;;;;;;5048946;28;20067;-78
2022/01/24 08:52:59;;;;;;;61.80;26.83;;;-4.80;94.60;;;;;;5045866;28;20071;-78
2022/01/24 08:55:29;;;;;;;51.40;25.05;;;-4.60;93.50;;;;;;5044495;28;20029;-78
2022/01/24 08:57:56;;;;;;;51.65;24.52;;;-4.60;90.80;;;;;;5047620;28;20021;-78
2022/01/24 09:00:23;;;;;;;54.17;26.23;;;-4.50;90.00;;;;;;5049421;28;20163;-78
2022/01/24 09:02:50;;;;;;;54.10;24.98;;;-4.40;89.00;;;;;;5047430;28;20367;-78
2022/01/24 09:05:17;;;;;;;53.47;24.95;;;-4.30;86.70;;;;;;5046586;28;20536;-78
2022/01/24 09:07:43;;;;;;;45.10;22.40;;;-4.10;86.10;;;;;;5045867;28;20037;-78
2022/01/24 09:10:10;;;;;;;48.88;22.27;;;-4.00;84.30;;;;;;5047850;28;20021;-78
2022/01/24 09:12:36;;;;;;;36.65;19.77;;;-4.00;82.70;;;;;;5050273;28;20029;-78
2022/01/24 09:15:02;;;;;;;34.20;18.52;;;-3.90;82.20;;;;;;5049435;28;20045;-78
2022/01/24 09:17:27;;;;;;;37.40;18.55;;;-3.80;81.60;;;;;;5041848;28;20029;-78
2022/01/24 09:19:53;;;;;;;36.10;17.65;;;-3.80;79.80;;;;;;5043141;28;20367;-79
2022/01/24 09:22:19;;;;;;;35.15;18.17;;;-3.70;79.10;;;;;;5045519;28;20025;-78
2022/01/24 09:24:44;;;;;;;37.08;19.15;;;-3.60;78.70;;;;;;5045893;28;20021;-78
2022/01/24 09:27:10;;;;;;;45.17;21.42;;;-3.50;78.40;;;;;;5047806;28;20029;-78
2022/01/24 09:29:35;;;;;;;41.42;19.08;;;-3.40;77.60;;;;;;5044781;28;20033;-79
2022/01/24 09:32:01;;;;;;;43.78;20.63;;;-3.30;76.70;;;;;;5039865;28;20479;-79
2022/01/24 09:34:27;;;;;;;39.75;20.45;;;-3.20;76.00;;;;;;5044416;28;20032;-79
2022/01/24 09:36:53;;;;;;;44.20;19.65;;;-3.20;75.80;;;;;;5038587;28;20037;-79
2022/01/24 09:39:19;;;;;;;42.22;21.60;;;-3.00;75.60;;;;;;5042622;28;20482;-79
2022/01/24 09:41:45;;;;;;;53.28;27.25;;;-2.80;75.80;;;;;;5038322;28;20112;-79
2022/01/24 09:44:11;;;;;;;49.08;24.30;;;-2.70;75.90;;;;;;5042491;28;20509;-79
2022/01/24 09:46:40;;;;;;;54.60;25.45;;;-2.50;74.80;;;;;;5036274;28;20449;-79
2022/01/24 09:49:06;;;;;;;56.00;27.13;;;-2.50;74.20;;;;;;5048094;28;20036;-79
2022/01/24 09:51:33;;;;;;;58.20;26.67;;;-2.30;73.20;;;;;;5036249;28;20078;-79
2022/01/24 09:53:59;;;;;;;71.13;37.70;;;-2.40;71.60;;;;;;5040394;28;20483;-79
2022/01/24 09:56:24;;;;;;;56.88;26.83;;;-2.40;72.00;;;;;;5047832;28;20029;-79
2022/01/24 09:58:50;;;;;;;48.38;24.23;;;-2.30;72.50;;;;;;5045802;28;20028;-79
2022/01/24 10:01:18;;;;;;;46.80;22.60;;;-2.40;72.30;;;;;;5043091;28;20048;-79
2022/01/24 10:04:04;;;;;;;45.95;21.00;;;-2.40;72.40;;;;;;5042792;28;20034;-79
2022/01/24 10:06:58;;;;;;;44.78;21.52;;;-2.30;73.10;;;;;;5043542;28;20033;-79
2022/01/24 10:09:27;;;;;;;48.25;22.17;;;-2.30;73.70;;;;;;5044884;28;20112;-79
2022/01/24 10:12:32;;;;;;;84.97;27.67;;;-2.30;73.80;;;;;;5045320;28;20052;-79
2022/01/24 10:17:46;;;;;;;111.10;39.78;;;-2.10;73.10;;;;;;5044806;28;20044;-78
2022/01/24 10:20:17;;;;;;;43.33;19.98;;;-2.00;73.00;;;;;;5046888;28;20104;-79
2022/01/24 10:22:58;;;;;;;35.85;17.17;;;-2.00;72.20;;;;;;5044150;28;20040;-79
2022/01/24 10:25:24;;;;;;;46.75;20.05;;;-2.10;71.80;;;;;;5045811;28;20029;-79
2022/01/24 10:27:50;;;;;;;58.53;21.75;;;-2.10;71.90;;;;;;5046541;28;20034;-79
2022/01/24 10:30:16;;;;;;;41.75;17.90;;;-2.00;72.70;;;;;;5038936;28;20144;-80
2022/01/24 10:32:52;;;;;;;44.90;16.90;;;-2.00;72.70;;;;;;5045749;28;20025;-79
2022/01/24 10:35:36;;;;;;;81.75;29.17;;;-2.00;72.20;;;;;;5049040;28;20056;-79
2022/01/24 10:43:36;;;;;;;51.45;19.50;;;-2.00;72.40;;;;;;5048301;28;20421;-79
2022/01/24 10:46:01;;;;;;;76.22;28.58;;;-1.80;72.90;;;;;;5046750;28;20025;-79
2022/01/24 10:48:39;;;;;;;152.80;59.03;;;-1.70;72.80;;;;;;5038219;28;20044;-79
2022/01/24 10:51:22;;;;;;;151.48;51.88;;;-1.70;72.30;;;;;;5058815;28;20120;-79
2022/01/24 10:53:49;;;;;;;;;;;-1.60;71.90;;;;;;5040788;28;20540;-79
2022/01/24 10:56:32;;;;;;;85.90;28.98;;;-1.60;71.80;;;;;;5046162;28;19916;-78
2022/01/24 10:59:11;;;;;;;54.72;19.85;;;-1.50;71.60;;;;;;5032581;28;20501;-78
2022/01/24 11:01:38;;;;;;;58.58;22.88;;;-1.60;70.50;;;;;;5035121;28;20018;-78
2022/01/24 11:04:10;;;;;;;49.65;17.75;;;-1.60;69.90;;;;;;5032745;28;20026;-78
2022/01/24 11:06:47;;;;;;;35.35;15.90;;;-1.60;69.90;;;;;;5031390;28;20017;-79
2022/01/24 11:09:19;;;;;;;49.67;20.88;;;-1.60;70.00;;;;;;5031524;28;20068;-78
2022/01/24 11:11:46;;;;;;;36.75;16.42;;;-1.60;70.00;;;;;;5031101;28;20028;-79
2022/01/24 11:14:16;;;;;;;27.45;13.80;;;-1.40;70.60;;;;;;5031213;28;20022;-79
2022/01/24 11:16:42;;;;;;;22.27;12.32;;;-1.30;72.10;;;;;;5041263;28;20109;-78
2022/01/24 11:19:15;;;;;;;26.75;14.00;;;-1.20;72.90;;;;;;5045190;28;20025;-77
2022/01/24 11:21:43;;;;;;;46.63;19.13;;;-1.00;72.30;;;;;;5051966;28;20061;-78
2022/01/24 11:24:10;;;;;;;35.67;17.60;;;-0.90;70.90;;;;;;5031164;28;20018;-78
2022/01/24 11:26:36;;;;;;;31.17;15.05;;;-0.90;70.30;;;;;;5039454;28;20063;-78
2022/01/24 11:29:04;;;;;;;22.60;11.75;;;-0.80;70.00;;;;;;5067521;28;20037;-77
2022/01/24 11:31:46;;;;;;;23.20;12.57;;;-0.90;69.10;;;;;;5052450;28;20466;-79
2022/01/24 11:34:18;;;;;;;23.83;11.67;;;-0.90;69.90;;;;;;5031272;28;20029;-78
2022/01/24 11:36:45;;;;;;;21.00;12.07;;;-0.70;70.50;;;;;;5031074;28;20264;-77
2022/01/24 11:39:11;;;;;;;30.20;13.18;;;-0.60;70.80;;;;;;5031066;28;20033;-77
2022/01/24 11:41:39;;;;;;;29.40;13.52;;;-0.50;71.00;;;;;;5031287;28;20029;-78
2022/01/24 11:44:12;;;;;;;29.40;14.35;;;-0.50;69.10;;;;;;5039924;28;20035;-79
2022/01/24 11:46:46;;;;;;;26.30;15.80;;;-0.30;69.20;;;;;;5051358;28;20526;-78
2022/01/24 11:49:34;;;;;;;27.13;15.23;;;-0.40;69.30;;;;;;5045856;28;20033;-80
2022/01/24 11:52:10;;;;;;;36.13;18.13;;;-0.30;70.00;;;;;;5034022;28;20032;-78
2022/01/24 11:57:27;;;;;;;27.58;14.18;;;-0.20;67.20;;;;;;5043950;28;20032;-79
2022/01/24 12:00:05;;;;;;;29.85;13.93;;;-0.10;66.90;;;;;;5036616;28;20457;-79
2022/01/24 12:02:52;;;;;;;27.08;14.00;;;-0.10;65.60;;;;;;5033501;28;20108;-79
2022/01/24 12:05:20;;;;;;;33.47;13.85;;;-0.10;66.60;;;;;;5033389;28;20029;-78
2022/01/24 12:07:52;;;;;;;66.55;23.27;;;0.00;66.00;;;;;;5033925;28;20022;-78
2022/01/24 12:10:21;;;;;;;32.00;14.40;;;0.00;65.80;;;;;;5035039;28;21529;-79
2022/01/24 12:12:59;;;;;;;31.98;14.15;;;0.00;65.60;;;;;;5033719;28;20045;-79
2022/01/24 12:15:40;;;;;;;38.63;18.33;;;0.10;65.00;;;;;;5048767;28;20041;-79
2022/01/24 12:18:23;;;;;;;22.75;12.50;;;0.10;65.60;;;;;;5043647;28;20095;-80
2022/01/24 12:21:06;;;;;;;24.25;12.23;;;0.00;65.00;;;;;;5041989;28;20037;-79
2022/01/24 12:23:34;;;;;;;21.67;11.07;;;-0.10;65.00;;;;;;5035293;28;20030;-78
2022/01/24 12:26:09;;;;;;;27.45;12.45;;;-0.10;64.80;;;;;;5051802;28;20030;-78
2022/01/24 12:28:41;;;;;;;25.92;15.15;;;-0.20;65.30;;;;;;5041916;28;20021;-80
2022/01/24 12:31:23;;;;;;;31.67;14.13;;;-0.30;66.00;;;;;;5039923;28;20029;-78
2022/01/24 12:33:55;;;;;;;31.83;14.75;;;-0.40;66.10;;;;;;5032999;28;20379;-80
2022/01/24 12:37:20;;;;;;;33.15;16.52;;;-0.50;66.40;;;;;;5035670;28;20049;-80
2022/01/24 12:39:32;;;;;;;44.40;18.90;;;-0.40;66.70;;;;;;5041589;28;20044;-80
2022/01/24 12:42:17;;;;;;;45.53;20.45;;;-0.60;66.30;;;;;;5052172;28;20162;-82
2022/01/24 12:47:15;;;;;;;43.53;21.63;;;-0.50;67.30;;;;;;5049893;28;20017;-81
2022/01/24 12:49:42;;;;;;;40.22;22.50;;;-0.50;68.30;;;;;;5039618;28;20410;-81
2022/01/24 12:52:11;;;;;;;41.53;24.23;;;-0.60;67.20;;;;;;5041736;28;20037;-82
2022/01/24 12:54:42;;;;;;;75.55;30.13;;;-0.60;68.10;;;;;;5045861;28;20033;-82
2022/01/24 12:57:11;;;;;;;55.88;26.13;;;-0.60;68.50;;;;;;5041494;28;20017;-81
2022/01/24 12:59:38;;;;;;;68.60;31.02;;;-0.50;68.80;;;;;;5032717;28;20137;-82
2022/01/24 13:02:06;;;;;;;151.63;48.97;;;-0.40;68.90;;;;;;5032355;28;20113;-82
2022/01/24 13:04:38;;;;;;;101.22;34.97;;;-0.40;68.80;;;;;;5043452;28;20021;-81
2022/01/24 13:07:06;;;;;;;179.07;51.97;;;-0.40;68.30;;;;;;5053834;28;20421;-82
2022/01/24 13:09:34;;;;;;;172.90;48.70;;;-0.40;68.20;;;;;;5052607;28;20033;-82
2022/01/24 13:12:04;;;;;;;115.88;37.28;;;-0.30;68.30;;;;;;5052034;28;20059;-82
2022/01/24 13:14:52;;;;;;;131.63;41.17;;;-0.30;67.70;;;;;;5052420;28;20075;-82
2022/01/24 13:22:57;;;;;;;84.55;29.58;;;-0.40;68.20;;;;;;5048628;28;20109;-83
2022/01/24 13:25:30;;;;;;;89.85;32.22;;;-0.30;68.80;;;;;;5043422;28;20041;-75
2022/01/24 13:27:57;;;;;;;86.43;34.15;;;-0.30;69.20;;;;;;5047545;28;20466;-78
2022/01/24 13:30:31;;;;;;;139.38;43.03;;;-0.30;69.20;;;;;;5052349;28;20084;-79
2022/01/24 13:33:14;;;;;;;94.13;35.20;;;-0.30;69.10;;;;;;5036203;28;20030;-81
2022/01/24 13:35:41;;;;;;;55.03;22.17;;;-0.30;69.30;;;;;;5051454;28;20167;-81
2022/01/24 13:38:12;;;;;;;49.95;18.98;;;-0.30;69.00;;;;;;5051723;28;20508;-81
2022/01/24 13:40:58;;;;;;;42.83;18.48;;;-0.40;68.20;;;;;;5043434;28;20041;-79
2022/01/24 13:43:46;;;;;;;47.80;20.48;;;-0.40;68.10;;;;;;5040387;28;20054;-81
2022/01/24 13:46:25;;;;;;;63.50;26.48;;;-0.40;68.10;;;;;;5036035;28;20037;-82
2022/01/24 13:48:57;;;;;;;194.00;66.35;;;-0.40;68.10;;;;;;5042988;28;20037;-81
2022/01/24 13:51:25;;;;;;;227.45;69.35;;;-0.40;68.50;;;;;;5051540;28;20044;-81
2022/01/24 13:53:56;;;;;;;112.03;43.92;;;-0.40;69.20;;;;;;5053078;28;20025;-80
2022/01/24 13:56:29;;;;;;;59.28;25.15;;;-0.40;70.00;;;;;;5049652;28;20025;-81
2022/01/24 13:58:58;;;;;;;44.63;20.40;;;-0.40;69.90;;;;;;5047584;28;20474;-80
2022/01/24 14:01:23;;;;;;;40.03;19.95;;;-0.40;69.20;;;;;;5051497;28;20064;-80
2022/01/24 14:04:06;;;;;;;44.58;20.33;;;-0.50;68.70;;;;;;5051000;28;20063;-81
2022/01/24 14:06:34;;;;;;;;;;;-0.50;69.20;;;;;;5051581;28;20033;-82
2022/01/24 14:09:12;;;;;;;40.78;19.23;;;-0.50;69.20;;;;;;5048207;28;19916;-81
2022/01/24 14:11:47;;;;;;;37.92;18.13;;;-0.50;69.20;;;;;;5048724;28;20033;-79
2022/01/24 14:14:18;;;;;;;34.47;17.83;;;-0.60;68.70;;;;;;5050061;28;20037;-79
2022/01/24 14:17:08;;;;;;;41.53;20.98;;;-0.60;69.20;;;;;;5051529;28;20037;-80
2022/01/24 14:19:35;;;;;;;48.42;20.85;;;-0.60;69.30;;;;;;5051985;28;20045;-79
2022/01/24 14:22:10;;;;;;;39.30;18.50;;;-0.60;69.90;;;;;;5051848;28;20041;-80
2022/01/24 14:24:49;;;;;;;50.97;23.55;;;-0.60;70.00;;;;;;5047331;28;20025;-79
2022/01/24 14:27:37;;;;;;;52.53;25.20;;;-0.60;70.80;;;;;;5051582;28;20083;-80
2022/01/24 14:30:11;;;;;;;41.72;21.75;;;-0.60;71.50;;;;;;5048274;28;20537;-80
2022/01/24 14:32:44;;;;;;;44.65;23.02;;;-0.60;70.00;;;;;;5043158;28;20491;-82
2022/01/24 14:35:11;;;;;;;43.53;18.98;;;-0.60;69.60;;;;;;5044578;28;20078;-83
2022/01/24 14:37:48;;;;;;;39.15;18.75;;;-0.70;70.00;;;;;;5066174;28;20036;-82
2022/01/24 14:46:05;;;;;;;58.22;27.35;;;-0.80;74.50;;;;;;5050017;28;20032;-82
2022/01/24 14:48:31;;;;;;;54.83;25.05;;;-0.80;74.20;;;;;;5045274;28;20021;-82